createdAt,value
2018-08-07T00:00:38.996Z,29.00
2018-08-07T00:03:09.834Z,29.06
2018-08-07T00:05:40.825Z,29.08
2018-08-07T00:08:11.222Z,29.11
2018-08-07T00:10:41.269Z,29.09
2018-08-07T00:13:13.510Z,29.05
2018-08-07T00:15:46.314Z,29.11
2018-08-07T00:18:16.798Z,29.15
2018-08-07T00:20:48.527Z,29.11
2018-08-07T00:23:19.663Z,29.11
2018-08-07T00:25:50.244Z,29.05
2018-08-07T00:28:21.571Z,29.09
2018-08-07T00:30:51.944Z,29.17
2018-08-07T00:33:23.824Z,29.23
2018-08-07T00:35:54.258Z,29.15
2018-08-07T00:38:25.276Z,29.11
2018-08-07T00:40:55.464Z,29.06
2018-08-07T00:43:26.622Z,28.94
2018-08-07T00:45:57.296Z,28.93
2018-08-07T00:48:27.757Z,28.96
2018-08-07T00:50:59.266Z,29.03
2018-08-07T00:53:30.697Z,28.92
2018-08-07T00:56:02.103Z,28.76
2018-08-07T00:58:32.760Z,28.50
2018-08-07T01:01:04.308Z,28.36
2018-08-07T01:03:35.368Z,28.21
2018-08-07T01:06:07.884Z,28.06
2018-08-07T01:08:38.761Z,28.05
2018-08-07T01:11:09.723Z,28.10
2018-08-07T01:13:40.739Z,28.18
2018-08-07T01:16:12.258Z,28.34
2018-08-07T01:18:43.053Z,28.34
2018-08-07T01:21:13.395Z,28.35
2018-08-07T01:23:43.930Z,28.30
2018-08-07T01:26:15.947Z,28.21
2018-08-07T01:28:46.662Z,28.25
2018-08-07T01:31:17.491Z,28.16
2018-08-07T01:33:47.632Z,28.18
2018-08-07T01:36:18.585Z,28.16
2018-08-07T01:38:50.493Z,28.16
2018-08-07T01:41:20.854Z,28.11
2018-08-07T01:43:52.456Z,28.01
2018-08-07T01:46:24.526Z,27.89
2018-08-07T01:48:57.079Z,27.68
2018-08-07T01:51:29.229Z,27.49
2018-08-07T01:54:00.291Z,27.35
2018-08-07T01:56:30.943Z,27.20
2018-08-07T01:59:02.072Z,27.07
2018-08-07T02:01:32.930Z,26.98
2018-08-07T02:04:03.545Z,26.90
2018-08-07T02:06:34.262Z,26.86
2018-08-07T02:09:04.670Z,26.85
2018-08-07T02:11:37.283Z,26.82
2018-08-07T02:14:07.916Z,26.82
2018-08-07T02:16:38.964Z,26.85
2018-08-07T02:19:09.487Z,26.76
2018-08-07T02:21:39.926Z,26.63
2018-08-07T02:24:10.853Z,26.54
2018-08-07T02:26:41.833Z,26.59
2018-08-07T02:29:12.303Z,26.60
2018-08-07T02:31:43.240Z,26.46
2018-08-07T02:34:13.932Z,26.33
2018-08-07T02:36:44.500Z,26.35
2018-08-07T02:39:14.647Z,26.43
2018-08-07T02:41:45.620Z,26.41
2018-08-07T02:44:15.923Z,26.36
2018-08-07T02:46:47.678Z,26.36
2018-08-07T02:49:18.572Z,26.41
2018-08-07T02:51:49.738Z,26.28
2018-08-07T02:54:21.044Z,26.29
2018-08-07T02:56:51.424Z,26.30
2018-08-07T02:59:21.821Z,26.23
2018-08-07T03:01:53.421Z,26.15
2018-08-07T03:04:23.740Z,25.96
2018-08-07T03:06:54.348Z,25.90
2018-08-07T03:09:30.788Z,25.90
2018-08-07T03:12:02.026Z,25.95
2018-08-07T03:14:32.363Z,26.01
2018-08-07T03:17:02.828Z,26.04
2018-08-07T03:19:32.944Z,26.01
2018-08-07T03:22:03.175Z,25.84
2018-08-07T03:24:34.816Z,25.57
2018-08-07T03:27:05.445Z,25.42
2018-08-07T03:29:35.760Z,25.30
2018-08-07T03:32:06.712Z,25.16
2018-08-07T03:34:37.675Z,25.13
2018-08-07T03:37:07.994Z,25.17
2018-08-07T03:39:39.470Z,25.05
2018-08-07T03:42:10.315Z,24.99
2018-08-07T03:44:42.860Z,25.02
2018-08-07T03:47:25.503Z,24.85
2018-08-07T03:49:57.525Z,24.74
2018-08-07T03:52:27.974Z,24.76
2018-08-07T03:54:58.416Z,24.73
2018-08-07T03:57:29.727Z,24.48
2018-08-07T04:00:00.111Z,24.72
2018-08-07T04:02:32.539Z,24.66
2018-08-07T04:05:02.905Z,24.72
2018-08-07T04:07:33.177Z,24.77
2018-08-07T04:10:04.382Z,24.64
2018-08-07T04:12:34.882Z,24.58
2018-08-07T04:15:13.032Z,24.57
2018-08-07T04:17:44.216Z,24.60
2018-08-07T04:20:19.612Z,24.59
2018-08-07T04:22:50.224Z,24.56
2018-08-07T04:25:20.557Z,24.58
2018-08-07T04:27:51.814Z,24.74
2018-08-07T04:30:22.908Z,24.89
2018-08-07T04:32:54.979Z,24.89
2018-08-07T04:35:25.281Z,24.92
2018-08-07T04:37:56.513Z,24.83
2018-08-07T04:40:28.009Z,24.70
2018-08-07T04:43:00.294Z,24.57
2018-08-07T04:45:31.445Z,24.64
2018-08-07T04:48:02.035Z,24.82
2018-08-07T04:50:32.341Z,24.85
2018-08-07T04:53:03.547Z,24.99
2018-08-07T04:55:33.949Z,25.03
2018-08-07T04:58:05.294Z,25.09
2018-08-07T05:03:42.144Z,25.45
2018-08-07T05:06:12.958Z,25.53
2018-08-07T05:08:44.338Z,25.66
2018-08-07T05:13:59.060Z,25.91
2018-08-07T05:16:29.913Z,26.07
2018-08-07T05:19:02.315Z,26.02
2018-08-07T05:21:34.341Z,26.22
2018-08-07T05:24:05.822Z,26.57
2018-08-07T05:26:37.423Z,26.65
2018-08-07T05:29:08.126Z,26.77
2018-08-07T05:31:39.091Z,26.78
2018-08-07T05:34:09.844Z,26.67
2018-08-07T05:36:41.131Z,26.74
2018-08-07T05:39:12.222Z,27.02
2018-08-07T05:41:43.286Z,27.17
2018-08-07T05:44:14.860Z,27.43
2018-08-07T05:46:47.011Z,27.58
2018-08-07T05:49:19.142Z,27.96
2018-08-07T05:51:49.982Z,28.09
2018-08-07T05:54:21.524Z,28.37
2018-08-07T05:56:53.185Z,28.97
2018-08-07T05:59:24.483Z,29.05
2018-08-07T06:01:57.164Z,29.26
2018-08-07T06:04:28.516Z,28.93
2018-08-07T06:07:00.234Z,29.13
2018-08-07T06:09:34.128Z,29.60
2018-08-07T06:12:05.789Z,29.64
2018-08-07T06:14:36.892Z,30.01
2018-08-07T06:17:12.963Z,30.39
2018-08-07T06:19:43.718Z,30.64
2018-08-07T06:22:16.641Z,30.99
2018-08-07T06:24:50.324Z,31.31
2018-08-07T06:27:21.247Z,31.54
2018-08-07T06:29:52.417Z,31.71
2018-08-07T06:32:25.431Z,31.91
2018-08-07T06:34:57.718Z,32.26
2018-08-07T06:37:28.865Z,32.56
2018-08-07T06:39:59.826Z,32.49
2018-08-07T06:42:31.211Z,32.81
2018-08-07T06:45:06.352Z,33.20
2018-08-07T06:47:39.579Z,33.54
2018-08-07T06:50:15.099Z,33.54
2018-08-07T06:52:47.482Z,33.54
2018-08-07T06:55:19.924Z,33.69
2018-08-07T06:57:53.988Z,33.59
2018-08-07T07:00:31.689Z,34.03
2018-08-07T07:03:03.931Z,34.28
2018-08-07T07:05:35.602Z,34.11
2018-08-07T07:08:06.788Z,34.40
2018-08-07T07:10:38.415Z,34.40
2018-08-07T07:13:12.539Z,34.80
2018-08-07T07:15:46.043Z,35.04
2018-08-07T07:18:22.009Z,35.19
2018-08-07T07:20:57.386Z,35.08
2018-08-07T07:23:31.634Z,34.75
2018-08-07T07:26:03.641Z,34.06
2018-08-07T07:31:12.428Z,35.30
2018-08-07T07:33:42.883Z,35.83
2018-08-07T07:36:14.715Z,36.21
2018-08-07T07:38:47.624Z,36.29
2018-08-07T07:41:20.954Z,36.48
2018-08-07T07:43:57.611Z,36.53
2018-08-07T07:46:29.296Z,37.02
2018-08-07T07:49:02.652Z,36.48
2018-08-07T07:51:34.297Z,36.40
2018-08-07T07:54:05.530Z,36.97
2018-08-07T07:56:36.345Z,37.27
2018-08-07T07:59:11.246Z,37.41
2018-08-07T08:01:48.084Z,37.82
2018-08-07T08:04:20.084Z,37.73
2018-08-07T08:06:50.790Z,38.13
2018-08-07T08:09:22.108Z,38.33
2018-08-07T08:11:52.571Z,37.84
2018-08-07T08:14:31.242Z,37.42
2018-08-07T08:17:02.636Z,37.57
2018-08-07T08:19:34.475Z,37.84
2018-08-07T08:22:07.144Z,38.46
2018-08-07T08:24:39.154Z,38.04
2018-08-07T08:27:13.106Z,38.69
2018-08-07T08:29:48.189Z,39.13
2018-08-07T08:32:19.603Z,39.18
2018-08-07T08:34:50.531Z,39.42
2018-08-07T08:37:21.505Z,39.82
2018-08-07T08:39:53.889Z,39.73
2018-08-07T08:42:25.225Z,39.83
2018-08-07T08:44:55.899Z,40.39
2018-08-07T08:47:28.619Z,40.44
2018-08-07T08:50:01.195Z,40.47
2018-08-07T08:52:32.994Z,39.66
2018-08-07T08:55:14.376Z,39.23
2018-08-07T08:57:51.434Z,39.73
2018-08-07T09:00:27.116Z,39.82
2018-08-07T09:03:02.178Z,39.63
2018-08-07T09:05:34.317Z,39.91
2018-08-07T09:08:06.317Z,39.73
2018-08-07T09:10:39.232Z,40.09
2018-08-07T09:13:10.708Z,40.38
2018-08-07T09:15:42.136Z,40.50
2018-08-07T09:18:13.080Z,40.45
2018-08-07T09:20:43.451Z,40.16
2018-08-07T09:23:13.813Z,40.54
2018-08-07T09:25:49.063Z,39.88
2018-08-07T09:28:19.852Z,40.14
2018-08-07T09:30:50.931Z,40.37
2018-08-07T09:36:22.057Z,41.00
2018-08-07T09:38:55.004Z,40.69
2018-08-07T09:41:34.051Z,40.88
2018-08-07T09:44:05.410Z,41.51
2018-08-07T09:46:37.982Z,41.10
2018-08-07T09:49:11.929Z,41.52
2018-08-07T09:54:37.481Z,41.58
2018-08-07T09:57:20.424Z,42.01
2018-08-07T09:59:59.109Z,42.24
2018-08-07T10:02:38.105Z,42.46
2018-08-07T10:05:10.615Z,42.49
2018-08-07T10:07:48.868Z,42.47
2018-08-07T10:10:23.458Z,42.66
2018-08-07T10:12:58.532Z,42.33
2018-08-07T10:15:30.679Z,42.93
2018-08-07T10:18:02.222Z,42.97
2018-08-07T10:20:35.628Z,42.57
2018-08-07T10:23:08.252Z,42.67
2018-08-07T10:25:42.252Z,42.49
2018-08-07T10:28:31.584Z,42.57
2018-08-07T10:31:06.131Z,43.09
2018-08-07T10:33:37.838Z,43.07
2018-08-07T10:36:15.242Z,42.76
2018-08-07T10:38:49.523Z,43.12
2018-08-07T10:41:26.659Z,42.85
2018-08-07T10:44:00.705Z,42.94
2018-08-07T10:46:31.686Z,43.20
2018-08-07T10:49:03.701Z,43.49
2018-08-07T10:51:38.007Z,42.96
2018-08-07T10:54:12.795Z,41.49
2018-08-07T10:56:46.891Z,41.59
2018-08-07T11:01:56.834Z,41.65
2018-08-07T11:04:30.765Z,42.38
2018-08-07T11:07:11.057Z,41.88
2018-08-07T11:09:43.360Z,42.27
2018-08-07T11:12:17.471Z,42.45
2018-08-07T11:14:49.322Z,42.80
2018-08-07T11:17:26.248Z,43.22
2018-08-07T11:19:59.510Z,43.02
2018-08-07T11:22:32.241Z,43.42
2018-08-07T11:25:06.279Z,43.43
2018-08-07T11:27:37.047Z,43.82
2018-08-07T11:30:19.671Z,44.35
2018-08-07T11:32:58.236Z,44.72
2018-08-07T11:35:30.733Z,45.08
2018-08-07T11:38:02.492Z,44.79
2018-08-07T11:40:34.054Z,45.27
2018-08-07T11:43:10.258Z,45.48
2018-08-07T11:45:41.401Z,44.21
2018-08-07T11:48:15.710Z,44.06
2018-08-07T11:50:48.797Z,44.18
2018-08-07T11:53:20.671Z,44.92
2018-08-07T11:56:30.548Z,44.92
2018-08-07T11:59:03.440Z,45.50
2018-08-07T12:01:34.542Z,45.44
2018-08-07T12:04:05.355Z,45.73
2018-08-07T12:06:41.579Z,45.42
2018-08-07T12:09:15.673Z,45.82
2018-08-07T12:11:47.494Z,46.01
2018-08-07T12:14:20.584Z,46.29
2018-08-07T12:16:52.442Z,46.35
2018-08-07T12:19:25.575Z,45.82
2018-08-07T12:21:57.177Z,45.98
2018-08-07T12:24:29.617Z,46.17
2018-08-07T12:27:02.960Z,45.30
2018-08-07T12:29:34.128Z,45.96
2018-08-07T12:32:06.044Z,45.89
2018-08-07T12:34:40.431Z,45.48
2018-08-07T12:37:12.977Z,45.74
2018-08-07T12:39:44.265Z,45.70
2018-08-07T12:42:15.016Z,45.21
2018-08-07T12:44:45.445Z,45.07
2018-08-07T12:47:16.401Z,45.31
2018-08-07T12:49:48.560Z,45.32
2018-08-07T12:52:18.889Z,45.32
2018-08-07T12:54:50.599Z,45.21
2018-08-07T12:57:21.911Z,45.17
2018-08-07T12:59:56.307Z,45.22
2018-08-07T13:02:28.296Z,45.69
2018-08-07T13:05:01.129Z,45.51
2018-08-07T13:07:34.614Z,45.73
2018-08-07T13:10:17.721Z,45.72
2018-08-07T13:12:53.465Z,45.87
2018-08-07T13:15:28.449Z,45.93
2018-08-07T13:17:59.742Z,45.90
2018-08-07T13:20:38.714Z,45.44
2018-08-07T13:23:15.970Z,45.35
2018-08-07T13:25:49.737Z,45.44
2018-08-07T13:28:38.390Z,44.94
2018-08-07T13:31:18.557Z,44.84
2018-08-07T13:37:07.163Z,45.37
2018-08-07T13:39:37.063Z,45.47
2018-08-07T13:42:11.287Z,45.27
2018-08-07T13:44:45.253Z,45.34
2018-08-07T13:47:16.281Z,45.15
2018-08-07T13:49:45.870Z,44.76
2018-08-07T13:52:16.298Z,44.85
2018-08-07T18:24:58.430Z,37.58
2018-08-07T18:27:38.298Z,37.60
2018-08-07T18:30:17.975Z,37.53
2018-08-07T18:32:49.535Z,37.49
2018-08-07T18:35:27.905Z,37.41
2018-08-07T18:38:00.269Z,37.40
2018-08-07T18:40:30.471Z,37.41
2018-08-07T18:43:08.863Z,37.34
2018-08-07T18:45:41.667Z,37.27
2018-08-07T18:48:13.814Z,37.23
2018-08-07T18:50:44.366Z,37.18
2018-08-07T18:53:14.368Z,37.06
2018-08-07T18:55:47.317Z,36.91
2018-08-07T18:58:17.397Z,36.85
2018-08-07T19:00:48.354Z,36.78
2018-08-07T19:03:23.878Z,36.77
2018-08-07T19:05:53.378Z,36.76
2018-08-07T19:08:24.984Z,36.76
2018-08-07T19:10:54.468Z,36.66
2018-08-07T19:13:27.390Z,36.62
2018-08-07T19:15:58.285Z,36.43
2018-08-07T19:18:29.669Z,36.31
2018-08-07T19:21:19.035Z,36.35
2018-08-07T19:23:49.073Z,36.27
2018-08-07T19:26:23.465Z,36.09
2018-08-07T19:28:54.371Z,35.99
2018-08-07T19:31:24.928Z,35.86
2018-08-07T19:33:57.965Z,35.71
2018-08-07T19:36:31.124Z,35.76
2018-08-07T19:39:00.674Z,35.67
2018-08-07T19:41:32.688Z,35.38
2018-08-07T19:44:03.836Z,35.24
2018-08-07T19:46:37.386Z,35.09
2018-08-07T19:49:09.899Z,35.05
2018-08-07T19:51:42.063Z,34.95
2018-08-07T19:54:16.853Z,34.81
2018-08-07T19:56:55.940Z,34.69
2018-08-07T19:59:26.201Z,34.74
2018-08-07T20:02:00.043Z,34.77
2018-08-07T20:04:35.249Z,34.76
2018-08-07T20:07:07.295Z,34.67
2018-08-07T20:09:42.432Z,34.45
2018-08-07T20:12:13.090Z,34.35
2018-08-07T20:17:31.716Z,34.26
2018-08-07T20:20:02.846Z,34.01
2018-08-07T20:22:33.908Z,33.88
2018-08-07T20:25:04.998Z,33.80
2018-08-07T20:27:41.301Z,33.58
2018-08-07T20:30:17.304Z,33.48
2018-08-07T20:32:54.709Z,33.47
2018-08-07T20:35:44.203Z,33.33
2018-08-07T20:38:18.314Z,33.31
2018-08-07T20:40:49.997Z,33.09
2018-08-07T20:43:22.159Z,32.94
2018-08-07T20:45:54.354Z,32.95
2018-08-07T20:48:33.338Z,33.03
2018-08-07T20:51:04.794Z,33.10
2018-08-07T20:53:47.513Z,33.12
2018-08-07T20:56:29.801Z,33.22
2018-08-07T20:59:12.017Z,33.21
2018-08-07T21:01:49.347Z,33.11
2018-08-07T21:04:23.237Z,33.00
2018-08-07T21:06:55.024Z,32.82
2018-08-07T21:09:28.355Z,32.71
2018-08-07T21:12:05.857Z,32.57
2018-08-07T21:14:37.298Z,32.44
2018-08-07T21:17:10.544Z,32.39
2018-08-07T21:19:44.672Z,32.39
2018-08-07T21:22:16.504Z,32.41
2018-08-07T21:25:00.117Z,32.31
2018-08-07T21:27:32.297Z,32.19
2018-08-07T21:32:54.624Z,32.13
2018-08-07T21:35:27.680Z,32.09
2018-08-07T21:38:12.235Z,31.92
2018-08-07T21:40:43.942Z,31.75
2018-08-07T21:43:15.794Z,31.73
2018-08-07T21:45:51.687Z,31.55
2018-08-07T21:48:24.338Z,31.37
2018-08-07T21:51:03.175Z,31.24
2018-08-07T21:53:36.313Z,31.05
2018-08-07T21:56:14.764Z,31.07
2018-08-07T21:58:46.503Z,31.04
2018-08-07T22:01:23.180Z,31.02
2018-08-07T22:03:57.245Z,30.99
2018-08-07T22:06:29.994Z,30.98
2018-08-07T22:09:01.409Z,30.98
2018-08-07T22:11:34.406Z,31.01
2018-08-07T22:14:09.267Z,31.03
2018-08-07T22:16:46.365Z,31.10
2018-08-07T22:19:18.295Z,31.19
2018-08-07T22:21:52.063Z,31.26
2018-08-07T22:24:21.970Z,31.21
2018-08-07T22:26:53.808Z,31.18
2018-08-07T22:29:28.345Z,31.25
2018-08-07T22:32:10.860Z,31.23
2018-08-07T22:34:41.008Z,31.02
2018-08-07T22:37:10.886Z,30.84
2018-08-07T22:39:43.601Z,30.69
2018-08-07T22:42:16.293Z,30.89
2018-08-07T22:45:08.114Z,31.02
2018-08-07T22:47:40.241Z,31.11
2018-08-07T22:50:19.788Z,31.10
2018-08-07T22:52:54.679Z,31.04
2018-08-07T22:55:26.844Z,31.13
2018-08-07T22:57:59.384Z,31.23
2018-08-07T23:00:29.564Z,31.18
2018-08-07T23:03:02.328Z,31.17
2018-08-07T23:05:41.616Z,31.21
2018-08-07T23:08:12.674Z,31.20
2018-08-07T23:10:43.824Z,31.08
2018-08-07T23:13:14.409Z,30.70
2018-08-07T23:15:46.590Z,31.01
2018-08-07T23:18:21.050Z,31.04
2018-08-07T23:20:52.060Z,30.89
2018-08-07T23:23:24.124Z,30.85
2018-08-07T23:25:55.986Z,30.84
2018-08-07T23:28:25.708Z,30.68
2018-08-07T23:30:55.487Z,30.73
2018-08-07T23:33:29.259Z,30.75
2018-08-07T23:36:00.322Z,30.64
2018-08-07T23:38:30.823Z,30.49
2018-08-07T23:41:00.425Z,30.36
2018-08-07T23:43:33.649Z,30.36
2018-08-07T23:46:04.656Z,30.35
2018-08-07T23:48:35.524Z,30.21
2018-08-07T23:51:05.941Z,30.07
2018-08-07T23:53:35.767Z,29.98
2018-08-07T23:56:06.601Z,30.08
2018-08-07T23:58:42.341Z,30.15
